Time;durP1;ratioP1;P1;durP2;ratioP2;P2;SDS_P1;SDS_P2;PMS_P1;PMS_P2;Temp;Humidity;BMP_temperature;BMP_pressure;BME280_temperature;BME280_humidity;BME280_pressure;Samples;Min_cycle;Max_cycle;Signal;HPM_P1;HPM_P2
2023/06/24 00:00:52;;;;;;;8.65;4.03;;;;;;;;;;5100664;28;20023;-76
2023/06/24 00:03:18;;;;;;;5.15;3.65;;;;;;;;;;5092424;28;20031;-75
2023/06/24 00:05:49;;;;;;;8.20;3.60;;;;;;;;;;5092819;28;20413;-75
2023/06/24 00:08:15;;;;;;;10.45;4.15;;;;;;;;;;5092281;28;20536;-75
2023/06/24 00:10:41;;;;;;;6.88;3.20;;;;;;;;;;5093820;28;20023;-75
2023/06/24 00:13:07;;;;;;;5.70;3.30;;;;;;;;;;5092884;28;20023;-76
2023/06/24 00:15:34;;;;;;;9.30;3.80;;;;;;;;;;5102332;28;20030;-76
2023/06/24 00:18:05;;;;;;;4.78;3.47;;;;;;;;;;5094225;28;20122;-76
2023/06/24 00:20:32;;;;;;;7.07;3.65;;;;;;;;;;5100074;28;20020;-76
2023/06/24 00:22:58;;;;;;;7.88;4.30;;;;;;;;;;5101765;28;20020;-74
2023/06/24 00:25:24;;;;;;;6.68;3.20;;;;;;;;;;5098467;28;20365;-76
2023/06/24 00:27:51;;;;;;;6.20;3.72;;;;;;;;;;5100085;28;20031;-76
2023/06/24 00:30:17;;;;;;;4.80;3.10;;;;;;;;;;5097898;28;20561;-75
2023/06/24 00:32:43;;;;;;;7.65;3.92;;;;;;;;;;5103782;28;20042;-75
2023/06/24 00:35:12;;;;;;;8.15;3.42;;;;;;;;;;5103293;27;20062;-75
2023/06/24 00:37:38;;;;;;;7.93;3.95;;;;;;;;;;5099194;28;20028;-75
2023/06/24 00:40:05;;;;;;;8.05;3.75;;;;;;;;;;5103899;28;20099;-75
2023/06/24 00:42:31;;;;;;;8.82;3.75;;;;;;;;;;5094916;28;20024;-75
2023/06/24 00:44:57;;;;;;;4.93;3.55;;;;;;;;;;5099785;28;20016;-75
2023/06/24 00:47:23;;;;;;;6.82;3.78;;;;;;;;;;5098467;28;20592;-75
2023/06/24 00:49:50;;;;;;;8.57;3.63;;;;;;;;;;5101672;28;20111;-75
2023/06/24 00:52:16;;;;;;;5.82;4.15;;;;;;;;;;5106707;28;20031;-75
2023/06/24 00:54:43;;;;;;;6.22;3.65;;;;;;;;;;5107853;28;20473;-75
2023/06/24 00:57:10;;;;;;;8.45;3.58;;;;;;;;;;5105571;28;20040;-75
2023/06/24 00:59:36;;;;;;;6.57;3.70;;;;;;;;;;5105570;28;20032;-76
2023/06/24 01:02:06;;;;;;;11.40;4.07;;;;;;;;;;5105651;28;20423;-75
2023/06/24 01:04:33;;;;;;;9.20;4.30;;;;;;;;;;5100287;28;20048;-76
2023/06/24 01:06:59;;;;;;;9.15;4.30;;;;;;;;;;5101250;28;20042;-76
2023/06/24 01:09:26;;;;;;;8.73;3.42;;;;;;;;;;5097706;28;20065;-76
2023/06/24 01:11:52;;;;;;;7.93;3.97;;;;;;;;;;5105655;28;20031;-75
2023/06/24 01:14:20;;;;;;;8.35;4.05;;;;;;;;;;5105309;28;20577;-75
2023/06/24 01:16:58;;;;;;;9.40;3.90;;;;;;;;;;5095394;28;20388;-74
2023/06/24 01:19:50;;;;;;;9.02;4.15;;;;;;;;;;5089380;28;20516;-75
2023/06/24 01:22:17;;;;;;;10.23;4.57;;;;;;;;;;5082470;28;20039;-76
2023/06/24 01:24:58;;;;;;;9.57;4.65;;;;;;;;;;5104324;28;20024;-75
2023/06/24 01:27:27;;;;;;;10.93;4.28;;;;;;;;;;5103032;28;20286;-75
2023/06/24 01:30:13;;;;;;;6.45;3.78;;;;;;;;;;5091051;28;20028;-75
2023/06/24 01:32:45;;;;;;;8.25;3.92;;;;;;;;;;5095258;28;20131;-75
2023/06/24 01:35:14;;;;;;;10.25;4.60;;;;;;;;;;5095614;28;20081;-76
2023/06/24 01:37:42;;;;;;;7.68;3.35;;;;;;;;;;5108795;28;20059;-76
2023/06/24 01:40:10;;;;;;;8.38;4.65;;;;;;;;;;5097161;28;20039;-75
2023/06/24 01:42:41;;;;;;;9.07;4.07;;;;;;;;;;5084693;28;20028;-75
2023/06/24 01:45:09;;;;;;;10.20;4.40;;;;;;;;;;5094846;27;20051;-75
2023/06/24 01:47:36;;;;;;;6.60;3.53;;;;;;;;;;5101426;28;20027;-76
2023/06/24 01:50:04;;;;;;;6.13;3.70;;;;;;;;;;5098844;28;20098;-75
2023/06/24 01:52:30;;;;;;;8.57;3.72;;;;;;;;;;5104915;28;20543;-76
2023/06/24 01:54:56;;;;;;;5.85;3.83;;;;;;;;;;5107923;28;20110;-76
2023/06/24 01:57:23;;;;;;;6.85;4.13;;;;;;;;;;5100595;28;20077;-76
2023/06/24 01:59:50;;;;;;;6.93;4.20;;;;;;;;;;5104216;28;20059;-75
2023/06/24 02:02:20;;;;;;;6.13;4.07;;;;;;;;;;5103627;28;20471;-76
2023/06/24 02:04:46;;;;;;;6.85;3.88;;;;;;;;;;5093831;28;20023;-76
2023/06/24 02:07:13;;;;;;;8.40;3.85;;;;;;;;;;5099855;28;20081;-75
2023/06/24 02:09:39;;;;;;;7.05;4.25;;;;;;;;;;5094116;28;20020;-75
2023/06/24 02:12:06;;;;;;;6.28;3.53;;;;;;;;;;5100037;28;20051;-75
2023/06/24 02:14:34;;;;;;;12.38;4.70;;;;;;;;;;5100470;28;20030;-76
2023/06/24 02:17:01;;;;;;;8.30;4.18;;;;;;;;;;5098178;28;20120;-76
2023/06/24 02:19:31;;;;;;;10.38;4.05;;;;;;;;;;5099437;28;20069;-76
2023/06/24 02:21:59;;;;;;;5.45;3.80;;;;;;;;;;5096440;28;20039;-76
2023/06/24 02:24:26;;;;;;;8.60;3.83;;;;;;;;;;5101815;28;20046;-75
2023/06/24 02:26:52;;;;;;;8.60;4.13;;;;;;;;;;5105835;28;20034;-75
2023/06/24 02:29:19;;;;;;;7.95;5.18;;;;;;;;;;5081415;28;20039;-75
2023/06/24 02:31:45;;;;;;;7.45;5.13;;;;;;;;;;5100289;28;20077;-76
2023/06/24 02:34:11;;;;;;;4.82;3.63;;;;;;;;;;5106308;28;20031;-75
2023/06/24 02:36:38;;;;;;;6.10;4.28;;;;;;;;;;5102578;28;20027;-77
2023/06/24 02:39:04;;;;;;;9.85;5.30;;;;;;;;;;5121414;28;20032;-76
2023/06/24 02:41:30;;;;;;;7.22;4.63;;;;;;;;;;5125117;28;20042;-75
2023/06/24 02:43:56;;;;;;;7.32;4.22;;;;;;;;;;5120684;28;20019;-76
2023/06/24 02:46:23;;;;;;;9.20;4.22;;;;;;;;;;5114742;28;20036;-75
2023/06/24 02:48:50;;;;;;;9.60;4.88;;;;;;;;;;5105555;28;20024;-75
2023/06/24 02:51:16;;;;;;;5.57;3.95;;;;;;;;;;5110865;28;20074;-75
2023/06/24 02:53:43;;;;;;;7.47;4.03;;;;;;;;;;5107742;28;20031;-76
2023/06/24 02:56:09;;;;;;;7.68;3.90;;;;;;;;;;5100007;28;20043;-76
2023/06/24 02:58:38;;;;;;;6.97;4.75;;;;;;;;;;5097738;28;20557;-76
2023/06/24 03:01:08;;;;;;;11.93;4.18;;;;;;;;;;5088128;28;20527;-76
2023/06/24 03:03:35;;;;;;;9.45;3.78;;;;;;;;;;5102201;28;20020;-76
2023/06/24 03:06:02;;;;;;;7.60;4.07;;;;;;;;;;5097027;28;20359;-76
2023/06/24 03:08:28;;;;;;;7.45;4.28;;;;;;;;;;5102972;28;20030;-76
2023/06/24 03:10:58;;;;;;;6.78;3.90;;;;;;;;;;5100694;28;20031;-76
2023/06/24 03:13:25;;;;;;;8.00;4.35;;;;;;;;;;5098325;28;20043;-76
2023/06/24 03:15:51;;;;;;;8.43;3.90;;;;;;;;;;5102041;28;20019;-76
2023/06/24 03:18:18;;;;;;;7.53;3.92;;;;;;;;;;5098485;28;20023;-76
2023/06/24 03:20:44;;;;;;;7.00;4.00;;;;;;;;;;5099430;28;20497;-75
2023/06/24 03:23:10;;;;;;;9.13;4.60;;;;;;;;;;5101160;28;20421;-74
2023/06/24 03:25:36;;;;;;;5.68;3.58;;;;;;;;;;5091176;28;20031;-77
2023/06/24 03:28:07;;;;;;;6.78;3.83;;;;;;;;;;5102206;28;20088;-75
2023/06/24 03:30:33;;;;;;;10.82;3.90;;;;;;;;;;5101186;28;20034;-76
2023/06/24 03:32:59;;;;;;;7.07;3.97;;;;;;;;;;5102092;28;20024;-76
2023/06/24 03:35:25;;;;;;;8.80;4.03;;;;;;;;;;5095173;28;20107;-75
2023/06/24 03:37:51;;;;;;;7.18;4.45;;;;;;;;;;5087911;28;20036;-76
2023/06/24 03:40:18;;;;;;;7.15;3.72;;;;;;;;;;5103207;28;20040;-76
2023/06/24 03:42:44;;;;;;;7.07;3.38;;;;;;;;;;5105952;28;20776;-75
2023/06/24 03:45:10;;;;;;;7.70;3.67;;;;;;;;;;5093701;28;20027;-76
2023/06/24 03:47:37;;;;;;;6.10;3.92;;;;;;;;;;5094941;28;20580;-76
2023/06/24 03:50:03;;;;;;;7.95;4.20;;;;;;;;;;5110680;28;20062;-76
2023/06/24 03:52:29;;;;;;;6.18;3.92;;;;;;;;;;5106108;28;20385;-75
2023/06/24 03:54:56;;;;;;;8.18;4.03;;;;;;;;;;5108071;28;20040;-76
2023/06/24 03:57:22;;;;;;;6.97;4.53;;;;;;;;;;5108551;28;20058;-76
2023/06/24 03:59:48;;;;;;;6.88;3.80;;;;;;;;;;5104488;28;20023;-76
2023/06/24 04:02:15;;;;;;;9.68;3.80;;;;;;;;;;5098396;28;20039;-75
2023/06/24 04:04:41;;;;;;;7.78;3.50;;;;;;;;;;5106060;28;20011;-75
2023/06/24 04:07:07;;;;;;;7.20;3.75;;;;;;;;;;5111511;28;20024;-76
2023/06/24 04:09:35;;;;;;;6.60;4.20;;;;;;;;;;5113045;28;20070;-75
2023/06/24 04:12:01;;;;;;;7.22;3.75;;;;;;;;;;5108189;28;20053;-77
2023/06/24 04:14:27;;;;;;;6.00;3.53;;;;;;;;;;5100906;28;20023;-76
2023/06/24 04:16:53;;;;;;;7.05;4.18;;;;;;;;;;5101038;28;20706;-76
2023/06/24 04:19:19;;;;;;;8.07;4.10;;;;;;;;;;5099456;28;20024;-76
2023/06/24 04:21:45;;;;;;;6.57;3.60;;;;;;;;;;5106003;28;20020;-76
2023/06/24 04:24:11;;;;;;;8.93;4.18;;;;;;;;;;5099969;28;20497;-76
2023/06/24 04:26:38;;;;;;;7.43;4.05;;;;;;;;;;5105417;28;20033;-75
2023/06/24 04:29:04;;;;;;;6.93;4.05;;;;;;;;;;5110771;28;20055;-76
2023/06/24 04:31:30;;;;;;;7.40;3.45;;;;;;;;;;5106921;27;20552;-76
2023/06/24 04:33:56;;;;;;;7.85;3.90;;;;;;;;;;5105139;28;20023;-76
2023/06/24 04:36:22;;;;;;;8.35;4.43;;;;;;;;;;5106274;28;20020;-76
2023/06/24 04:38:48;;;;;;;7.00;3.65;;;;;;;;;;5108585;28;20036;-76
2023/06/24 04:41:14;;;;;;;6.35;3.75;;;;;;;;;;5102242;28;20019;-75
2023/06/24 04:43:40;;;;;;;6.63;3.92;;;;;;;;;;5102198;28;20110;-76
2023/06/24 04:46:06;;;;;;;8.20;3.78;;;;;;;;;;5098997;28;20020;-75
2023/06/24 04:48:32;;;;;;;6.43;3.55;;;;;;;;;;5103060;28;20016;-75
2023/06/24 04:50:58;;;;;;;8.48;3.92;;;;;;;;;;5100556;28;20054;-76
2023/06/24 04:53:25;;;;;;;6.05;3.42;;;;;;;;;;5111412;28;20066;-76
2023/06/24 04:55:51;;;;;;;6.60;3.30;;;;;;;;;;5096504;28;21080;-76
2023/06/24 04:58:17;;;;;;;7.57;4.68;;;;;;;;;;5096839;28;20358;-76
2023/06/24 05:00:43;;;;;;;4.95;3.92;;;;;;;;;;5096969;28;20123;-75
2023/06/24 05:03:10;;;;;;;6.38;3.72;;;;;;;;;;5106392;28;20019;-75
2023/06/24 05:05:36;;;;;;;6.65;3.60;;;;;;;;;;5101587;28;20098;-76
2023/06/24 05:08:02;;;;;;;7.75;3.50;;;;;;;;;;5103006;28;20157;-75
2023/06/24 05:10:28;;;;;;;5.93;3.20;;;;;;;;;;5105877;28;20098;-75
2023/06/24 05:12:54;;;;;;;8.18;3.80;;;;;;;;;;5101086;28;20028;-75
2023/06/24 05:15:20;;;;;;;6.75;3.08;;;;;;;;;;5087906;28;20165;-76
2023/06/24 05:17:46;;;;;;;7.55;3.75;;;;;;;;;;5102903;28;20027;-75
2023/06/24 05:20:13;;;;;;;5.00;3.25;;;;;;;;;;5101454;28;20028;-75
2023/06/24 05:22:39;;;;;;;6.70;3.20;;;;;;;;;;5093440;28;20023;-75
2023/06/24 05:25:05;;;;;;;7.15;3.20;;;;;;;;;;5100708;28;20405;-77
2023/06/24 05:27:31;;;;;;;5.65;3.83;;;;;;;;;;5102890;28;20104;-76
2023/06/24 05:29:57;;;;;;;7.65;3.85;;;;;;;;;;5096087;28;20028;-76
2023/06/24 05:32:24;;;;;;;8.57;3.58;;;;;;;;;;5101775;28;20092;-75
2023/06/24 05:34:50;;;;;;;4.95;3.20;;;;;;;;;;5099410;28;20039;-75
2023/06/24 05:37:16;;;;;;;5.63;3.47;;;;;;;;;;5101634;28;20080;-76
2023/06/24 05:39:42;;;;;;;5.93;3.47;;;;;;;;;;5100583;28;20044;-75
2023/06/24 05:42:09;;;;;;;5.05;3.75;;;;;;;;;;5106473;28;20081;-76
2023/06/24 05:44:35;;;;;;;5.05;3.28;;;;;;;;;;5096737;28;20031;-76
2023/06/24 05:47:01;;;;;;;8.18;4.00;;;;;;;;;;5104651;28;20586;-76
2023/06/24 05:49:27;;;;;;;5.45;3.17;;;;;;;;;;5096718;28;20126;-76
2023/06/24 05:51:53;;;;;;;7.03;3.65;;;;;;;;;;5097209;28;20028;-76
2023/06/24 05:54:19;;;;;;;5.50;3.92;;;;;;;;;;5105205;28;20389;-76
2023/06/24 05:56:45;;;;;;;7.13;3.70;;;;;;;;;;5101264;28;20084;-76
2023/06/24 05:59:11;;;;;;;10.73;4.05;;;;;;;;;;5102418;28;20023;-76
2023/06/24 06:01:37;;;;;;;5.85;3.10;;;;;;;;;;5125338;28;20019;-75
2023/06/24 06:04:03;;;;;;;4.88;3.20;;;;;;;;;;5126525;27;20032;-76
2023/06/24 06:06:30;;;;;;;4.05;3.08;;;;;;;;;;5118744;28;20035;-77
2023/06/24 06:08:57;;;;;;;4.85;3.75;;;;;;;;;;5097413;28;20036;-76
2023/06/24 06:11:23;;;;;;;7.53;3.38;;;;;;;;;;5105128;28;20034;-76
2023/06/24 06:13:49;;;;;;;5.80;3.22;;;;;;;;;;5099088;28;20070;-76
2023/06/24 06:16:15;;;;;;;6.32;3.30;;;;;;;;;;5104685;28;20093;-76
2023/06/24 06:18:41;;;;;;;5.63;3.60;;;;;;;;;;5104090;28;20050;-75
2023/06/24 06:21:08;;;;;;;6.95;3.20;;;;;;;;;;5098879;28;20021;-76
2023/06/24 06:23:34;;;;;;;6.97;3.83;;;;;;;;;;5103912;28;20066;-75
2023/06/24 06:26:00;;;;;;;5.82;3.38;;;;;;;;;;5101968;28;20087;-75
2023/06/24 06:28:26;;;;;;;6.13;3.40;;;;;;;;;;5103471;28;20055;-76
2023/06/24 06:30:52;;;;;;;9.07;4.03;;;;;;;;;;5101617;28;20024;-76
2023/06/24 06:33:31;;;;;;;6.20;3.10;;;;;;;;;;5094974;27;20475;-77
2023/06/24 06:35:58;;;;;;;5.07;3.08;;;;;;;;;;5096336;28;20047;-78
2023/06/24 06:38:24;;;;;;;6.22;3.10;;;;;;;;;;5081812;28;20042;-82
2023/06/24 06:40:51;;;;;;;6.10;2.88;;;;;;;;;;5078652;28;20070;-79
2023/06/24 06:43:17;;;;;;;6.80;3.70;;;;;;;;;;5080686;28;20071;-78
2023/06/24 06:45:43;;;;;;;6.35;3.53;;;;;;;;;;5080016;28;20420;-78
2023/06/24 06:48:09;;;;;;;4.80;3.63;;;;;;;;;;5097942;28;20052;-78
2023/06/24 06:50:35;;;;;;;8.07;3.67;;;;;;;;;;5079267;28;20282;-77
2023/06/24 06:53:01;;;;;;;5.80;3.47;;;;;;;;;;5081330;28;20392;-77
2023/06/24 06:55:28;;;;;;;7.20;4.00;;;;;;;;;;5094689;28;20032;-78
2023/06/24 06:57:55;;;;;;;6.20;3.05;;;;;;;;;;5097485;28;20055;-77
2023/06/24 07:00:21;;;;;;;7.07;3.13;;;;;;;;;;5077129;28;20189;-80
2023/06/24 07:02:47;;;;;;;5.38;3.35;;;;;;;;;;5080121;28;20474;-78
2023/06/24 07:05:13;;;;;;;7.10;3.30;;;;;;;;;;5082592;28;20308;-78
2023/06/24 07:07:39;;;;;;;5.53;3.17;;;;;;;;;;5082136;28;20024;-80
2023/06/24 07:10:06;;;;;;;3.65;3.00;;;;;;;;;;5079526;28;20032;-75
2023/06/24 07:12:32;;;;;;;5.35;2.83;;;;;;;;;;5078111;28;20063;-77
2023/06/24 07:14:58;;;;;;;5.30;2.90;;;;;;;;;;5090691;28;20067;-81
2023/06/24 07:17:24;;;;;;;5.68;3.10;;;;;;;;;;5080812;28;20034;-77
2023/06/24 07:19:50;;;;;;;5.55;3.20;;;;;;;;;;5077588;28;20369;-77
2023/06/24 07:22:16;;;;;;;4.90;2.80;;;;;;;;;;5096187;28;20389;-79
2023/06/24 07:24:43;;;;;;;7.07;3.00;;;;;;;;;;5093922;28;20451;-80
2023/06/24 07:27:09;;;;;;;5.28;3.15;;;;;;;;;;5087535;28;20370;-79
2023/06/24 07:29:36;;;;;;;6.10;3.28;;;;;;;;;;5095054;28;20404;-80
2023/06/24 07:32:02;;;;;;;6.70;3.42;;;;;;;;;;5068619;28;20046;-79
2023/06/24 07:34:30;;;;;;;4.53;2.95;;;;;;;;;;5097617;28;20701;-78
2023/06/24 07:36:57;;;;;;;5.95;3.30;;;;;;;;;;5095221;28;20758;-79
2023/06/24 07:39:23;;;;;;;6.78;3.03;;;;;;;;;;5077326;28;20365;-78
2023/06/24 07:41:49;;;;;;;8.73;3.65;;;;;;;;;;5088427;28;20526;-79
2023/06/24 07:44:15;;;;;;;5.53;2.90;;;;;;;;;;5083676;28;20028;-78
2023/06/24 07:46:41;;;;;;;7.70;3.20;;;;;;;;;;5064356;28;20032;-78
2023/06/24 07:49:07;;;;;;;3.95;3.03;;;;;;;;;;5067096;28;20514;-78
2023/06/24 07:51:35;;;;;;;10.65;3.10;;;;;;;;;;5067310;28;20024;-79
2023/06/24 07:54:01;;;;;;;4.35;3.42;;;;;;;;;;5067344;28;20481;-78
2023/06/24 07:56:27;;;;;;;7.05;2.88;;;;;;;;;;5082332;28;20025;-78
2023/06/24 07:58:53;;;;;;;5.30;2.83;;;;;;;;;;5064859;28;20029;-78
2023/06/24 08:01:19;;;;;;;5.53;3.13;;;;;;;;;;5082063;28;20140;-78
2023/06/24 08:03:45;;;;;;;6.20;3.28;;;;;;;;;;5059213;28;20020;-78
2023/06/24 08:06:13;;;;;;;3.60;2.95;;;;;;;;;;5066451;28;20016;-79
2023/06/24 08:08:39;;;;;;;5.63;3.13;;;;;;;;;;5064830;28;20061;-78
2023/06/24 08:11:05;;;;;;;4.53;3.00;;;;;;;;;;5066621;28;20035;-78
2023/06/24 08:13:31;;;;;;;6.88;3.08;;;;;;;;;;5067361;28;20058;-78
2023/06/24 08:15:57;;;;;;;4.85;2.90;;;;;;;;;;5083587;28;20317;-78
2023/06/24 08:18:23;;;;;;;4.43;3.58;;;;;;;;;;5079683;28;20056;-78
2023/06/24 08:20:49;;;;;;;8.38;3.47;;;;;;;;;;5079522;28;20079;-78
2023/06/24 08:23:16;;;;;;;5.57;3.20;;;;;;;;;;5082128;28;20075;-78
2023/06/24 08:25:42;;;;;;;8.63;2.90;;;;;;;;;;5065775;28;20059;-78
2023/06/24 08:28:08;;;;;;;4.95;2.70;;;;;;;;;;5075807;28;20377;-78
2023/06/24 08:30:34;;;;;;;5.47;4.20;;;;;;;;;;5065503;28;20039;-78
2023/06/24 08:33:00;;;;;;;8.02;3.30;;;;;;;;;;5067205;28;20481;-78
2023/06/24 08:35:26;;;;;;;3.40;2.65;;;;;;;;;;5076149;28;20067;-78
2023/06/24 08:37:52;;;;;;;7.93;4.25;;;;;;;;;;5069861;28;20454;-79
2023/06/24 08:40:19;;;;;;;5.18;3.63;;;;;;;;;;5064154;28;20032;-79
2023/06/24 08:42:45;;;;;;;6.70;3.60;;;;;;;;;;5082309;28;20127;-78
2023/06/24 08:45:11;;;;;;;7.47;3.50;;;;;;;;;;5063176;28;20032;-79
2023/06/24 08:47:37;;;;;;;8.20;3.90;;;;;;;;;;5078377;28;20092;-78
2023/06/24 08:50:16;;;;;;;5.78;3.35;;;;;;;;;;5082764;28;20036;-78
2023/06/24 08:52:49;;;;;;;6.53;3.28;;;;;;;;;;5082355;28;20127;-79
2023/06/24 08:55:17;;;;;;;6.75;3.33;;;;;;;;;;5067417;28;20074;-79
2023/06/24 08:57:43;;;;;;;6.40;3.50;;;;;;;;;;5065524;28;20024;-78
2023/06/24 09:00:10;;;;;;;8.65;3.50;;;;;;;;;;5067097;28;20048;-78
2023/06/24 09:02:38;;;;;;;7.03;3.20;;;;;;;;;;5068529;28;20024;-78
2023/06/24 09:05:07;;;;;;;6.15;3.30;;;;;;;;;;5063999;28;20377;-78
2023/06/24 09:07:33;;;;;;;5.82;3.03;;;;;;;;;;5063296;28;20032;-78
2023/06/24 09:10:03;;;;;;;6.07;3.80;;;;;;;;;;5063953;28;20028;-77
2023/06/24 09:12:32;;;;;;;7.15;3.55;;;;;;;;;;5065313;28;20127;-77
2023/06/24 09:14:58;;;;;;;7.75;3.28;;;;;;;;;;5068707;28;20036;-78
2023/06/24 09:17:24;;;;;;;11.20;4.63;;;;;;;;;;5059399;28;20429;-78
2023/06/24 09:19:51;;;;;;;6.25;3.78;;;;;;;;;;5065332;28;20025;-79
2023/06/24 09:22:18;;;;;;;5.35;3.13;;;;;;;;;;5072133;28;20132;-78
2023/06/24 09:24:46;;;;;;;5.85;2.90;;;;;;;;;;5081146;28;20115;-80
2023/06/24 09:27:14;;;;;;;4.32;3.28;;;;;;;;;;5060242;28;20086;-80
2023/06/24 09:29:42;;;;;;;6.07;3.97;;;;;;;;;;5072358;28;20033;-79
2023/06/24 09:32:08;;;;;;;8.90;3.30;;;;;;;;;;5078273;28;20515;-80
2023/06/24 09:34:34;;;;;;;10.63;4.20;;;;;;;;;;5062924;28;20017;-82
2023/06/24 09:37:00;;;;;;;5.28;3.35;;;;;;;;;;5064656;28;20029;-78
2023/06/24 09:39:30;;;;;;;7.13;3.78;;;;;;;;;;5062986;28;20024;-78
2023/06/24 09:42:00;;;;;;;7.18;3.72;;;;;;;;;;5064737;28;20098;-79
2023/06/24 09:44:27;;;;;;;11.68;3.97;;;;;;;;;;5064034;28;20420;-77
2023/06/24 09:46:54;;;;;;;7.85;3.28;;;;;;;;;;5064620;28;20118;-80
2023/06/24 09:49:20;;;;;;;6.43;3.47;;;;;;;;;;5080805;28;20060;-79
2023/06/24 09:51:47;;;;;;;5.65;3.58;;;;;;;;;;5064711;28;20116;-81
2023/06/24 09:54:15;;;;;;;7.50;3.30;;;;;;;;;;5065596;28;20455;-79
2023/06/24 09:56:44;;;;;;;7.40;3.97;;;;;;;;;;5061713;28;20016;-79
2023/06/24 09:59:11;;;;;;;5.25;3.28;;;;;;;;;;5062800;28;20480;-78
2023/06/24 10:01:39;;;;;;;7.60;3.40;;;;;;;;;;5062823;28;20029;-79
2023/06/24 10:04:09;;;;;;;5.90;3.50;;;;;;;;;;5063658;28;20495;-77
2023/06/24 10:06:35;;;;;;;6.45;3.78;;;;;;;;;;5077086;28;20120;-77
2023/06/24 10:09:01;;;;;;;7.72;4.00;;;;;;;;;;5071356;28;20116;-79
2023/06/24 10:11:28;;;;;;;6.30;3.90;;;;;;;;;;5065933;28;20040;-81
2023/06/24 10:13:54;;;;;;;7.22;4.43;;;;;;;;;;5062303;28;20474;-79
2023/06/24 10:16:20;;;;;;;6.45;3.65;;;;;;;;;;5073594;28;20028;-78
2023/06/24 10:18:48;;;;;;;6.93;3.95;;;;;;;;;;5076601;28;20072;-78
2023/06/24 10:21:15;;;;;;;6.50;3.75;;;;;;;;;;5080997;28;20032;-78
2023/06/24 10:23:48;;;;;;;4.35;3.42;;;;;;;;;;5062787;28;20055;-78
2023/06/24 10:26:36;;;;;;;5.95;3.45;;;;;;;;;;5072664;28;20029;-77
2023/06/24 10:29:06;;;;;;;6.78;3.30;;;;;;;;;;5077361;28;20047;-77
2023/06/24 10:31:44;;;;;;;6.03;3.58;;;;;;;;;;5063222;28;20459;-79
2023/06/24 10:34:29;;;;;;;9.38;5.07;;;;;;;;;;5066336;28;20021;-78
2023/06/24 10:36:55;;;;;;;8.50;3.90;;;;;;;;;;5075839;28;20024;-78
2023/06/24 10:39:40;;;;;;;6.22;3.97;;;;;;;;;;5060668;28;20526;-77
2023/06/24 10:42:25;;;;;;;8.75;4.38;;;;;;;;;;5081647;28;20025;-79
2023/06/24 10:44:52;;;;;;;6.15;3.97;;;;;;;;;;5075265;28;20375;-78
2023/06/24 10:47:18;;;;;;;7.10;4.60;;;;;;;;;;5062868;28;20037;-79
2023/06/24 10:49:44;;;;;;;7.13;4.18;;;;;;;;;;5062120;28;20526;-77
2023/06/24 10:52:11;;;;;;;9.45;4.90;;;;;;;;;;5050680;28;20024;-79
2023/06/24 10:54:41;;;;;;;10.48;4.13;;;;;;;;;;5062904;28;20052;-80
2023/06/24 10:57:08;;;;;;;8.25;4.10;;;;;;;;;;5054906;28;20044;-78
2023/06/24 10:59:35;;;;;;;6.35;4.22;;;;;;;;;;5071762;28;20029;-81
2023/06/24 11:02:01;;;;;;;8.63;4.15;;;;;;;;;;5058115;28;20032;-80
2023/06/24 11:04:27;;;;;;;7.20;4.03;;;;;;;;;;5071268;28;20381;-81
2023/06/24 11:06:59;;;;;;;8.93;3.95;;;;;;;;;;5056934;28;20392;-81
2023/06/24 11:09:26;;;;;;;10.10;4.82;;;;;;;;;;5070333;28;20575;-81
2023/06/24 11:11:52;;;;;;;5.82;3.63;;;;;;;;;;5057935;28;20058;-81
2023/06/24 11:14:20;;;;;;;9.30;4.28;;;;;;;;;;5056757;28;20519;-81
2023/06/24 11:16:46;;;;;;;5.88;3.30;;;;;;;;;;5072833;28;20073;-81
2023/06/24 11:19:13;;;;;;;4.72;3.25;;;;;;;;;;5061043;28;20489;-81
2023/06/24 11:21:40;;;;;;;6.13;3.20;;;;;;;;;;5071278;28;20460;-82
2023/06/24 11:24:06;;;;;;;5.90;3.83;;;;;;;;;;5061487;28;20028;-79
2023/06/24 11:26:33;;;;;;;8.27;3.58;;;;;;;;;;5074966;28;20036;-81
2023/06/24 11:28:59;;;;;;;6.80;3.97;;;;;;;;;;5074141;28;20465;-81
2023/06/24 11:31:28;;;;;;;6.30;3.60;;;;;;;;;;5062531;28;20121;-79
2023/06/24 11:33:56;;;;;;;6.85;3.65;;;;;;;;;;5063167;28;20444;-83
2023/06/24 11:36:22;;;;;;;6.90;3.83;;;;;;;;;;5067605;28;20040;-79
2023/06/24 11:38:49;;;;;;;8.30;4.22;;;;;;;;;;5073825;28;20594;-80
2023/06/24 11:41:15;;;;;;;5.97;4.53;;;;;;;;;;5070231;28;20047;-78
2023/06/24 11:43:48;;;;;;;6.60;3.63;;;;;;;;;;5058848;28;21462;-78
2023/06/24 11:46:26;;;;;;;5.93;3.72;;;;;;;;;;5060565;28;20037;-78
2023/06/24 11:48:53;;;;;;;7.30;4.05;;;;;;;;;;5059134;28;20111;-77
2023/06/24 11:51:19;;;;;;;5.53;4.07;;;;;;;;;;5070585;28;20024;-78
2023/06/24 11:53:46;;;;;;;6.03;3.40;;;;;;;;;;5073142;28;20020;-77
2023/06/24 11:56:12;;;;;;;5.07;3.65;;;;;;;;;;5071540;28;20039;-77
2023/06/24 11:58:39;;;;;;;6.55;4.30;;;;;;;;;;5058736;28;20481;-78
2023/06/24 12:01:08;;;;;;;9.45;4.10;;;;;;;;;;5059414;28;20035;-79
2023/06/24 12:03:34;;;;;;;5.13;3.50;;;;;;;;;;5074019;28;20036;-80
2023/06/24 12:06:01;;;;;;;7.32;3.65;;;;;;;;;;5058288;28;20440;-80
2023/06/24 12:08:27;;;;;;;7.60;4.10;;;;;;;;;;5061227;28;20028;-77
2023/06/24 12:10:53;;;;;;;5.35;3.30;;;;;;;;;;5073536;28;20503;-78
2023/06/24 12:13:19;;;;;;;5.70;3.85;;;;;;;;;;5057855;28;20495;-78
2023/06/24 12:15:45;;;;;;;7.80;3.97;;;;;;;;;;5055964;28;20032;-78
2023/06/24 12:18:14;;;;;;;5.97;3.40;;;;;;;;;;5074529;28;20123;-78
2023/06/24 12:20:40;;;;;;;8.25;3.95;;;;;;;;;;5059399;28;20032;-77
2023/06/24 12:23:06;;;;;;;6.45;2.95;;;;;;;;;;5054681;28;20032;-77
2023/06/24 12:25:33;;;;;;;5.90;2.45;;;;;;;;;;5057468;28;20163;-77
2023/06/24 12:27:59;;;;;;;6.95;3.25;;;;;;;;;;5072190;28;20036;-78
2023/06/24 12:30:26;;;;;;;3.55;2.53;;;;;;;;;;5077029;28;20476;-78
2023/06/24 12:32:52;;;;;;;4.53;2.60;;;;;;;;;;5055228;28;20044;-79
2023/06/24 12:35:18;;;;;;;5.22;2.80;;;;;;;;;;5058973;28;20599;-79
2023/06/24 12:37:45;;;;;;;3.58;2.75;;;;;;;;;;5073138;28;20473;-80
2023/06/24 12:40:11;;;;;;;4.53;2.70;;;;;;;;;;5075572;28;20029;-79
2023/06/24 12:42:37;;;;;;;5.63;2.90;;;;;;;;;;5072798;28;20032;-79
2023/06/24 12:45:04;;;;;;;4.40;2.60;;;;;;;;;;5076495;28;20067;-79
2023/06/24 12:47:30;;;;;;;8.70;2.47;;;;;;;;;;5060028;28;21043;-79
2023/06/24 12:49:56;;;;;;;3.70;2.83;;;;;;;;;;5054084;28;22754;-78
2023/06/24 12:52:22;;;;;;;4.35;2.70;;;;;;;;;;5059641;28;20056;-80
2023/06/24 12:54:49;;;;;;;4.25;2.53;;;;;;;;;;5071634;28;20582;-79
2023/06/24 12:57:15;;;;;;;4.55;2.53;;;;;;;;;;5054858;28;20089;-81
2023/06/24 12:59:42;;;;;;;5.13;2.70;;;;;;;;;;5071853;28;20032;-82
2023/06/24 13:02:08;;;;;;;2.88;2.47;;;;;;;;;;5056447;28;20089;-80
2023/06/24 13:04:34;;;;;;;2.90;2.20;;;;;;;;;;5060236;28;20036;-78
2023/06/24 13:07:00;;;;;;;4.68;2.65;;;;;;;;;;5075317;28;20028;-79
2023/06/24 13:09:26;;;;;;;4.05;2.50;;;;;;;;;;5055902;28;20514;-77
2023/06/24 13:11:53;;;;;;;4.88;2.53;;;;;;;;;;5056926;28;20032;-79
2023/06/24 13:14:19;;;;;;;4.22;2.50;;;;;;;;;;5058455;28;20028;-78
2023/06/24 13:16:45;;;;;;;3.33;2.30;;;;;;;;;;5074474;28;20554;-77
2023/06/24 13:19:11;;;;;;;3.22;2.53;;;;;;;;;;5058194;28;20032;-79
2023/06/24 13:21:37;;;;;;;3.53;2.55;;;;;;;;;;5061570;28;20051;-77
2023/06/24 13:24:03;;;;;;;2.70;2.28;;;;;;;;;;5071759;28;20382;-79
2023/06/24 13:26:29;;;;;;;3.65;2.03;;;;;;;;;;5056076;28;20108;-78
2023/06/24 13:28:56;;;;;;;2.53;1.88;;;;;;;;;;5070486;28;20032;-78
2023/06/24 13:31:22;;;;;;;2.47;1.90;;;;;;;;;;5072300;28;20036;-78
2023/06/24 13:33:48;;;;;;;2.03;1.80;;;;;;;;;;5054149;28;20711;-78
2023/06/24 13:36:29;;;;;;;2.28;2.00;;;;;;;;;;5075756;28;20724;-78
2023/06/24 13:38:55;;;;;;;2.30;2.10;;;;;;;;;;5071753;28;22080;-83
2023/06/24 13:41:21;;;;;;;2.30;2.10;;;;;;;;;;5056904;28;20025;-78
2023/06/24 13:43:47;;;;;;;3.97;2.10;;;;;;;;;;5070991;28;20169;-79
2023/06/24 13:46:13;;;;;;;2.28;1.98;;;;;;;;;;5071564;28;20115;-79
2023/06/24 13:48:39;;;;;;;3.03;2.13;;;;;;;;;;5057211;28;20028;-78
2023/06/24 13:51:06;;;;;;;2.95;2.10;;;;;;;;;;5075888;28;20484;-78
2023/06/24 13:53:32;;;;;;;3.95;2.00;;;;;;;;;;5061780;28;20029;-78
2023/06/24 13:55:59;;;;;;;2.80;1.90;;;;;;;;;;5079208;28;20043;-77
2023/06/24 13:58:25;;;;;;;2.10;1.90;;;;;;;;;;5065393;28;20025;-78
2023/06/24 14:00:51;;;;;;;2.72;2.03;;;;;;;;;;5080667;28;20025;-78
2023/06/24 14:03:17;;;;;;;4.18;2.35;;;;;;;;;;5078599;28;20036;-78
2023/06/24 14:05:43;;;;;;;2.45;1.88;;;;;;;;;;5069670;28;20797;-78
2023/06/24 14:08:10;;;;;;;2.22;1.90;;;;;;;;;;5066879;28;20017;-77
2023/06/24 14:10:37;;;;;;;2.10;1.90;;;;;;;;;;5080506;28;20024;-79
2023/06/24 14:13:03;;;;;;;2.42;2.15;;;;;;;;;;5063619;28;20025;-78
2023/06/24 14:15:29;;;;;;;4.00;2.00;;;;;;;;;;5081369;28;20480;-79
2023/06/24 14:17:55;;;;;;;2.65;2.10;;;;;;;;;;5077073;28;20028;-78
2023/06/24 14:20:21;;;;;;;2.35;2.15;;;;;;;;;;5060226;28;20037;-77
2023/06/24 14:22:47;;;;;;;2.28;1.83;;;;;;;;;;5062738;28;20358;-79
2023/06/24 14:25:13;;;;;;;3.25;2.00;;;;;;;;;;5063071;28;20028;-79
2023/06/24 14:27:39;;;;;;;3.28;2.20;;;;;;;;;;5081751;28;20036;-79
2023/06/24 14:30:06;;;;;;;2.10;1.90;;;;;;;;;;5062000;28;20659;-78
2023/06/24 14:32:32;;;;;;;2.88;1.90;;;;;;;;;;5063876;28;20809;-79
2023/06/24 14:34:58;;;;;;;3.03;2.15;;;;;;;;;;5082960;28;20037;-79
2023/06/24 14:37:24;;;;;;;2.92;2.10;;;;;;;;;;5066821;28;20047;-79
2023/06/24 14:39:51;;;;;;;2.45;2.20;;;;;;;;;;5060408;28;20393;-79
2023/06/24 14:42:17;;;;;;;3.53;1.90;;;;;;;;;;5064150;28;20036;-79